sensor_id;sensor_type;location;lat;lon;timestamp;pressure;altitude;pressure_sealevel;temperature;humidity
25869;BME280;13688;53.154;18.136;2023-08-24T00:00:24;101062.69;;;18.15;100.00
25869;BME280;13688;53.154;18.136;2023-08-24T00:05:48;101067.58;;;18.12;100.00
25869;BME280;13688;53.154;18.136;2023-08-24T00:11:10;101071.81;;;18.06;100.00
25869;BME280;13688;53.154;18.136;2023-08-24T00:16:32;101062.23;;;18.02;100.00
25869;BME280;13688;53.154;18.136;2023-08-24T00:21:55;101060.70;;;17.99;100.00
25869;BME280;13688;53.154;18.136;2023-08-24T00:27:17;101058.30;;;17.96;100.00
25869;BME280;13688;53.154;18.136;2023-08-24T00:32:40;101057.22;;;17.89;100.00
25869;BME280;13688;53.154;18.136;2023-08-24T00:38:03;101072.30;;;17.84;100.00
25869;BME280;13688;53.154;18.136;2023-08-24T00:43:26;101071.94;;;17.79;100.00
25869;BME280;13688;53.154;18.136;2023-08-24T00:48:49;101079.00;;;17.71;100.00
25869;BME280;13688;53.154;18.136;2023-08-24T00:54:13;101074.88;;;17.67;100.00
25869;BME280;13688;53.154;18.136;2023-08-24T00:59:35;101075.33;;;17.63;100.00
25869;BME280;13688;53.154;18.136;2023-08-24T01:04:59;101093.42;;;17.54;100.00
25869;BME280;13688;53.154;18.136;2023-08-24T01:10:22;101091.09;;;17.41;100.00
25869;BME280;13688;53.154;18.136;2023-08-24T01:16:08;101100.34;;;17.31;100.00
25869;BME280;13688;53.154;18.136;2023-08-24T01:21:32;101099.70;;;17.19;100.00
25869;BME280;13688;53.154;18.136;2023-08-24T01:26:55;101101.31;;;16.84;100.00
25869;BME280;13688;53.154;18.136;2023-08-24T01:32:18;101103.42;;;16.53;100.00
25869;BME280;13688;53.154;18.136;2023-08-24T01:37:42;101114.50;;;16.33;100.00
25869;BME280;13688;53.154;18.136;2023-08-24T01:43:07;101108.26;;;16.13;100.00
25869;BME280;13688;53.154;18.136;2023-08-24T01:48:32;101111.11;;;15.92;100.00
25869;BME280;13688;53.154;18.136;2023-08-24T01:53:55;101120.41;;;15.70;100.00
25869;BME280;13688;53.154;18.136;2023-08-24T01:59:18;101119.70;;;15.68;100.00
25869;BME280;13688;53.154;18.136;2023-08-24T02:04:41;101117.66;;;15.51;100.00
25869;BME280;13688;53.154;18.136;2023-08-24T02:10:03;101135.47;;;15.43;100.00
25869;BME280;13688;53.154;18.136;2023-08-24T02:15:26;101130.05;;;15.43;100.00
25869;BME280;13688;53.154;18.136;2023-08-24T02:20:51;101127.91;;;15.28;100.00
25869;BME280;13688;53.154;18.136;2023-08-24T02:26:13;101120.16;;;15.13;100.00
25869;BME280;13688;53.154;18.136;2023-08-24T02:31:36;101122.67;;;14.96;100.00
25869;BME280;13688;53.154;18.136;2023-08-24T02:36:58;101127.09;;;14.87;100.00
25869;BME280;13688;53.154;18.136;2023-08-24T02:42:21;101123.34;;;14.78;100.00
25869;BME280;13688;53.154;18.136;2023-08-24T02:47:44;101127.21;;;14.55;100.00
25869;BME280;13688;53.154;18.136;2023-08-24T02:53:06;101132.69;;;14.44;100.00
25869;BME280;13688;53.154;18.136;2023-08-24T02:58:29;101141.21;;;14.60;100.00
25869;BME280;13688;53.154;18.136;2023-08-24T03:03:51;101136.84;;;14.69;100.00
25869;BME280;13688;53.154;18.136;2023-08-24T03:09:15;101130.29;;;14.71;100.00
25869;BME280;13688;53.154;18.136;2023-08-24T03:14:38;101136.42;;;14.73;100.00
25869;BME280;13688;53.154;18.136;2023-08-24T03:20:00;101126.48;;;14.83;100.00
25869;BME280;13688;53.154;18.136;2023-08-24T03:25:24;101127.48;;;14.82;100.00
25869;BME280;13688;53.154;18.136;2023-08-24T03:30:54;101134.07;;;14.89;100.00
25869;BME280;13688;53.154;18.136;2023-08-24T03:36:17;101135.67;;;15.02;100.00
25869;BME280;13688;53.154;18.136;2023-08-24T03:41:39;101131.40;;;14.99;100.00
25869;BME280;13688;53.154;18.136;2023-08-24T03:47:02;101134.25;;;14.98;100.00
25869;BME280;13688;53.154;18.136;2023-08-24T03:52:24;101127.27;;;15.05;100.00
25869;BME280;13688;53.154;18.136;2023-08-24T03:57:49;101120.73;;;15.07;100.00
25869;BME280;13688;53.154;18.136;2023-08-24T04:03:12;101122.87;;;15.13;100.00
25869;BME280;13688;53.154;18.136;2023-08-24T04:08:35;101133.72;;;15.23;100.00
25869;BME280;13688;53.154;18.136;2023-08-24T04:13:57;101124.03;;;15.21;100.00
25869;BME280;13688;53.154;18.136;2023-08-24T04:19:20;101129.30;;;15.22;100.00
25869;BME280;13688;53.154;18.136;2023-08-24T04:24:43;101141.85;;;15.23;100.00
25869;BME280;13688;53.154;18.136;2023-08-24T04:30:06;101142.70;;;15.24;100.00
25869;BME280;13688;53.154;18.136;2023-08-24T04:35:33;101150.98;;;15.22;100.00
25869;BME280;13688;53.154;18.136;2023-08-24T04:40:56;101151.69;;;15.24;100.00
25869;BME280;13688;53.154;18.136;2023-08-24T04:46:19;101148.44;;;15.30;100.00
25869;BME280;13688;53.154;18.136;2023-08-24T04:51:42;101142.62;;;15.35;100.00
25869;BME280;13688;53.154;18.136;2023-08-24T04:57:04;101134.48;;;15.35;100.00
25869;BME280;13688;53.154;18.136;2023-08-24T05:02:28;101135.20;;;15.37;100.00
25869;BME280;13688;53.154;18.136;2023-08-24T05:07:53;101141.89;;;15.42;100.00
25869;BME280;13688;53.154;18.136;2023-08-24T05:13:22;101141.05;;;15.52;100.00
25869;BME280;13688;53.154;18.136;2023-08-24T05:18:44;101142.55;;;15.85;100.00
25869;BME280;13688;53.154;18.136;2023-08-24T05:24:07;101141.50;;;16.24;100.00
25869;BME280;13688;53.154;18.136;2023-08-24T05:29:29;101143.41;;;16.61;100.00
25869;BME280;13688;53.154;18.136;2023-08-24T05:34:51;101128.43;;;16.94;100.00
25869;BME280;13688;53.154;18.136;2023-08-24T05:40:14;101127.89;;;17.18;100.00
25869;BME280;13688;53.154;18.136;2023-08-24T05:45:36;101130.08;;;17.32;100.00
25869;BME280;13688;53.154;18.136;2023-08-24T05:50:59;101121.53;;;17.45;100.00
25869;BME280;13688;53.154;18.136;2023-08-24T05:56:22;101118.09;;;17.70;100.00
25869;BME280;13688;53.154;18.136;2023-08-24T06:01:44;101122.67;;;17.88;100.00
25869;BME280;13688;53.154;18.136;2023-08-24T06:07:07;101116.45;;;17.95;100.00
25869;BME280;13688;53.154;18.136;2023-08-24T06:12:31;101117.22;;;18.06;100.00
25869;BME280;13688;53.154;18.136;2023-08-24T06:17:54;101117.88;;;18.25;100.00
25869;BME280;13688;53.154;18.136;2023-08-24T06:23:17;101116.92;;;18.35;100.00
25869;BME280;13688;53.154;18.136;2023-08-24T06:28:40;101118.34;;;18.47;100.00
25869;BME280;13688;53.154;18.136;2023-08-24T06:34:02;101111.35;;;18.70;100.00
25869;BME280;13688;53.154;18.136;2023-08-24T06:39:24;101114.50;;;18.83;100.00
25869;BME280;13688;53.154;18.136;2023-08-24T06:44:47;101116.97;;;19.03;100.00
25869;BME280;13688;53.154;18.136;2023-08-24T06:50:10;101120.61;;;19.28;100.00
25869;BME280;13688;53.154;18.136;2023-08-24T06:55:32;101126.29;;;19.42;100.00
25869;BME280;13688;53.154;18.136;2023-08-24T07:00:55;101126.81;;;19.54;100.00
25869;BME280;13688;53.154;18.136;2023-08-24T07:06:17;101115.63;;;19.82;100.00
25869;BME280;13688;53.154;18.136;2023-08-24T07:11:40;101128.77;;;19.94;100.00
25869;BME280;13688;53.154;18.136;2023-08-24T07:17:02;101129.97;;;20.08;100.00
25869;BME280;13688;53.154;18.136;2023-08-24T07:22:25;101134.73;;;20.22;100.00
25869;BME280;13688;53.154;18.136;2023-08-24T07:27:48;101139.69;;;20.27;100.00
25869;BME280;13688;53.154;18.136;2023-08-24T07:33:12;101129.93;;;20.41;100.00
25869;BME280;13688;53.154;18.136;2023-08-24T07:38:34;101135.07;;;20.44;100.00
25869;BME280;13688;53.154;18.136;2023-08-24T07:43:57;101137.95;;;20.58;100.00
25869;BME280;13688;53.154;18.136;2023-08-24T07:49:20;101138.25;;;20.72;100.00
25869;BME280;13688;53.154;18.136;2023-08-24T07:54:42;101135.52;;;20.72;100.00
25869;BME280;13688;53.154;18.136;2023-08-24T08:00:07;101134.81;;;20.86;100.00
25869;BME280;13688;53.154;18.136;2023-08-24T08:05:32;101137.61;;;21.09;100.00
25869;BME280;13688;53.154;18.136;2023-08-24T08:10:59;101129.48;;;21.32;100.00
25869;BME280;13688;53.154;18.136;2023-08-24T08:16:21;101135.91;;;21.47;100.00
25869;BME280;13688;53.154;18.136;2023-08-24T08:21:46;101143.08;;;21.48;100.00
25869;BME280;13688;53.154;18.136;2023-08-24T08:27:09;101142.25;;;21.70;100.00
25869;BME280;13688;53.154;18.136;2023-08-24T08:32:31;101136.73;;;22.02;100.00
25869;BME280;13688;53.154;18.136;2023-08-24T08:37:54;101137.83;;;22.15;100.00
25869;BME280;13688;53.154;18.136;2023-08-24T08:43:17;101138.47;;;22.40;100.00
25869;BME280;13688;53.154;18.136;2023-08-24T08:48:45;101145.92;;;22.09;100.00
25869;BME280;13688;53.154;18.136;2023-08-24T08:54:08;101136.65;;;22.33;100.00
25869;BME280;13688;53.154;18.136;2023-08-24T08:59:32;101146.42;;;22.65;100.00
25869;BME280;13688;53.154;18.136;2023-08-24T09:04:56;101141.52;;;22.60;95.13
25869;BME280;13688;53.154;18.136;2023-08-24T09:10:19;101142.36;;;22.75;92.20
25869;BME280;13688;53.154;18.136;2023-08-24T09:15:42;101135.18;;;22.74;85.04
25869;BME280;13688;53.154;18.136;2023-08-24T09:21:11;101143.89;;;22.78;85.89
25869;BME280;13688;53.154;18.136;2023-08-24T09:26:36;101136.22;;;22.73;86.97
25869;BME280;13688;53.154;18.136;2023-08-24T09:31:58;101127.36;;;23.01;83.37
25869;BME280;13688;53.154;18.136;2023-08-24T09:37:23;101117.79;;;23.11;85.43
25869;BME280;13688;53.154;18.136;2023-08-24T09:42:51;101127.72;;;23.12;78.04
25869;BME280;13688;53.154;18.136;2023-08-24T09:48:15;101126.22;;;23.10;76.92
25869;BME280;13688;53.154;18.136;2023-08-24T09:53:39;101117.78;;;23.26;76.14
25869;BME280;13688;53.154;18.136;2023-08-24T09:59:12;101120.55;;;23.84;76.14
25869;BME280;13688;53.154;18.136;2023-08-24T10:04:38;101126.47;;;24.09;69.13
25869;BME280;13688;53.154;18.136;2023-08-24T10:10:03;101115.75;;;23.92;71.24
25869;BME280;13688;53.154;18.136;2023-08-24T10:15:28;101096.02;;;24.60;69.78
25869;BME280;13688;53.154;18.136;2023-08-24T10:20:53;101109.03;;;24.79;64.33
25869;BME280;13688;53.154;18.136;2023-08-24T10:26:18;101098.69;;;24.46;69.75
25869;BME280;13688;53.154;18.136;2023-08-24T10:31:42;101087.13;;;24.58;71.73
25869;BME280;13688;53.154;18.136;2023-08-24T10:37:15;101080.45;;;24.39;74.45
25869;BME280;13688;53.154;18.136;2023-08-24T10:42:50;101068.70;;;24.93;71.42
25869;BME280;13688;53.154;18.136;2023-08-24T10:48:15;101073.06;;;24.74;69.90
25869;BME280;13688;53.154;18.136;2023-08-24T10:53:58;101065.27;;;24.43;76.35
25869;BME280;13688;53.154;18.136;2023-08-24T10:59:22;101069.78;;;24.57;78.10
25869;BME280;13688;53.154;18.136;2023-08-24T11:05:05;101059.34;;;24.18;74.16
25869;BME280;13688;53.154;18.136;2023-08-24T11:10:49;101059.46;;;23.82;79.20
25869;BME280;13688;53.154;18.136;2023-08-24T11:16:19;101051.56;;;23.93;79.86
25869;BME280;13688;53.154;18.136;2023-08-24T11:21:54;101042.42;;;24.14;81.93
25869;BME280;13688;53.154;18.136;2023-08-24T11:27:16;101050.74;;;23.99;80.29
25869;BME280;13688;53.154;18.136;2023-08-24T11:32:39;101041.11;;;24.73;80.39
25869;BME280;13688;53.154;18.136;2023-08-24T11:38:04;101042.09;;;24.31;79.27
25869;BME280;13688;53.154;18.136;2023-08-24T11:43:30;101027.84;;;24.90;70.51
25869;BME280;13688;53.154;18.136;2023-08-24T11:48:53;101029.34;;;24.51;72.31
25869;BME280;13688;53.154;18.136;2023-08-24T11:54:16;101023.67;;;24.52;75.15
25869;BME280;13688;53.154;18.136;2023-08-24T11:59:40;101023.59;;;24.80;69.42
25869;BME280;13688;53.154;18.136;2023-08-24T12:05:05;101011.29;;;25.31;64.63
25869;BME280;13688;53.154;18.136;2023-08-24T12:10:43;100989.23;;;26.37;60.72
25869;BME280;13688;53.154;18.136;2023-08-24T12:16:09;101006.02;;;25.62;61.87
25869;BME280;13688;53.154;18.136;2023-08-24T12:21:33;100996.39;;;26.64;57.87
25869;BME280;13688;53.154;18.136;2023-08-24T12:27:03;100987.27;;;27.02;56.20
25869;BME280;13688;53.154;18.136;2023-08-24T12:32:41;100987.13;;;26.45;55.39
25869;BME280;13688;53.154;18.136;2023-08-24T12:38:01;100992.04;;;25.64;63.33
25869;BME280;13688;53.154;18.136;2023-08-24T12:43:23;100976.80;;;26.01;61.47
25869;BME280;13688;53.154;18.136;2023-08-24T12:48:47;100974.89;;;27.49;54.50
25869;BME280;13688;53.154;18.136;2023-08-24T12:54:09;100970.16;;;27.56;51.14
25869;BME280;13688;53.154;18.136;2023-08-24T12:59:33;100945.68;;;28.10;47.64
25869;BME280;13688;53.154;18.136;2023-08-24T13:04:57;100949.77;;;28.44;47.12
25869;BME280;13688;53.154;18.136;2023-08-24T13:10:19;100955.47;;;28.31;46.03
25869;BME280;13688;53.154;18.136;2023-08-24T13:15:42;100961.45;;;27.84;46.68
25869;BME280;13688;53.154;18.136;2023-08-24T13:21:09;100942.28;;;28.08;46.26
25869;BME280;13688;53.154;18.136;2023-08-24T13:26:32;100930.48;;;28.37;45.45
25869;BME280;13688;53.154;18.136;2023-08-24T13:31:54;100929.50;;;28.32;46.10
25869;BME280;13688;53.154;18.136;2023-08-24T13:37:17;100935.50;;;27.85;47.07
25869;BME280;13688;53.154;18.136;2023-08-24T13:42:40;100939.33;;;27.34;49.47
25869;BME280;13688;53.154;18.136;2023-08-24T13:48:03;100930.27;;;28.87;44.79
25869;BME280;13688;53.154;18.136;2023-08-24T13:53:25;100934.61;;;28.65;43.53
25869;BME280;13688;53.154;18.136;2023-08-24T13:58:48;100928.44;;;27.15;46.48
25869;BME280;13688;53.154;18.136;2023-08-24T14:04:10;100928.29;;;27.84;46.76
25869;BME280;13688;53.154;18.136;2023-08-24T14:09:33;100911.27;;;28.06;46.71
25869;BME280;13688;53.154;18.136;2023-08-24T14:14:57;100912.58;;;28.58;46.02
25869;BME280;13688;53.154;18.136;2023-08-24T14:20:21;100908.13;;;28.87;45.73
25869;BME280;13688;53.154;18.136;2023-08-24T14:25:45;100888.94;;;29.04;46.75
25869;BME280;13688;53.154;18.136;2023-08-24T14:31:09;100890.26;;;29.01;44.05
25869;BME280;13688;53.154;18.136;2023-08-24T14:36:34;100874.75;;;29.12;44.42
25869;BME280;13688;53.154;18.136;2023-08-24T14:41:57;100853.58;;;30.00;43.15
25869;BME280;13688;53.154;18.136;2023-08-24T14:47:20;100855.02;;;29.20;43.22
25869;BME280;13688;53.154;18.136;2023-08-24T14:52:42;100860.98;;;29.82;42.61
25869;BME280;13688;53.154;18.136;2023-08-24T14:58:04;100876.98;;;29.45;43.04
25869;BME280;13688;53.154;18.136;2023-08-24T15:03:27;100875.52;;;28.29;46.43
25869;BME280;13688;53.154;18.136;2023-08-24T15:08:49;100864.79;;;27.78;48.27
25869;BME280;13688;53.154;18.136;2023-08-24T15:14:13;100845.09;;;29.54;45.54
25869;BME280;13688;53.154;18.136;2023-08-24T15:19:36;100857.09;;;29.36;43.48
25869;BME280;13688;53.154;18.136;2023-08-24T15:24:59;100838.38;;;27.38;47.17
25869;BME280;13688;53.154;18.136;2023-08-24T15:30:22;100846.63;;;28.55;46.07
25869;BME280;13688;53.154;18.136;2023-08-24T15:35:48;100842.41;;;29.71;43.80
25869;BME280;13688;53.154;18.136;2023-08-24T15:41:11;100834.30;;;29.23;43.45
25869;BME280;13688;53.154;18.136;2023-08-24T15:46:33;100830.20;;;29.02;44.12
25869;BME280;13688;53.154;18.136;2023-08-24T15:51:56;100841.25;;;28.90;44.67
25869;BME280;13688;53.154;18.136;2023-08-24T15:57:19;100820.32;;;28.64;45.48
25869;BME280;13688;53.154;18.136;2023-08-24T16:02:41;100838.95;;;27.90;46.42
25869;BME280;13688;53.154;18.136;2023-08-24T16:08:04;100834.16;;;27.11;48.50
25869;BME280;13688;53.154;18.136;2023-08-24T16:13:27;100828.53;;;26.68;49.94
25869;BME280;13688;53.154;18.136;2023-08-24T16:18:49;100826.73;;;27.12;52.73
25869;BME280;13688;53.154;18.136;2023-08-24T16:24:12;100809.55;;;28.26;50.59
25869;BME280;13688;53.154;18.136;2023-08-24T16:29:36;100802.87;;;28.64;48.34
25869;BME280;13688;53.154;18.136;2023-08-24T16:34:59;100796.69;;;28.20;49.64
25869;BME280;13688;53.154;18.136;2023-08-24T16:40:21;100798.69;;;28.13;49.54
25869;BME280;13688;53.154;18.136;2023-08-24T16:45:44;100811.17;;;26.61;52.29
25869;BME280;13688;53.154;18.136;2023-08-24T16:51:07;100814.07;;;25.83;57.20
25869;BME280;13688;53.154;18.136;2023-08-24T16:56:29;100813.88;;;25.64;61.27
25869;BME280;13688;53.154;18.136;2023-08-24T17:01:51;100812.39;;;25.75;61.57
25869;BME280;13688;53.154;18.136;2023-08-24T17:07:14;100818.40;;;25.39;67.47
25869;BME280;13688;53.154;18.136;2023-08-24T17:12:36;100803.56;;;24.94;83.55
25869;BME280;13688;53.154;18.136;2023-08-24T17:17:59;100816.28;;;24.14;85.16
25869;BME280;13688;53.154;18.136;2023-08-24T17:23:21;100815.05;;;24.23;86.13
25869;BME280;13688;53.154;18.136;2023-08-24T17:28:44;100816.28;;;24.14;94.71
25869;BME280;13688;53.154;18.136;2023-08-24T17:34:06;100811.94;;;23.91;100.00
25869;BME280;13688;53.154;18.136;2023-08-24T17:39:28;100804.30;;;23.46;100.00
25869;BME280;13688;53.154;18.136;2023-08-24T17:44:51;100806.37;;;23.16;100.00
25869;BME280;13688;53.154;18.136;2023-08-24T17:50:13;100798.46;;;22.78;100.00
25869;BME280;13688;53.154;18.136;2023-08-24T17:55:36;100804.92;;;22.49;100.00
25869;BME280;13688;53.154;18.136;2023-08-24T18:01:00;100805.92;;;22.26;100.00
25869;BME280;13688;53.154;18.136;2023-08-24T18:06:22;100800.69;;;21.95;100.00
25869;BME280;13688;53.154;18.136;2023-08-24T18:11:45;100814.47;;;21.87;100.00
25869;BME280;13688;53.154;18.136;2023-08-24T18:17:07;100813.05;;;21.32;100.00
25869;BME280;13688;53.154;18.136;2023-08-24T18:22:30;100823.30;;;21.15;100.00
25869;BME280;13688;53.154;18.136;2023-08-24T18:27:54;100825.79;;;21.02;100.00
25869;BME280;13688;53.154;18.136;2023-08-24T18:33:17;100829.34;;;20.88;100.00
25869;BME280;13688;53.154;18.136;2023-08-24T18:38:40;100839.73;;;20.47;100.00
25869;BME280;13688;53.154;18.136;2023-08-24T18:44:03;100847.66;;;20.25;100.00
25869;BME280;13688;53.154;18.136;2023-08-24T18:49:26;100848.21;;;20.21;100.00
25869;BME280;13688;53.154;18.136;2023-08-24T18:54:48;100853.98;;;19.87;100.00
25869;BME280;13688;53.154;18.136;2023-08-24T19:00:12;100853.83;;;19.88;100.00
25869;BME280;13688;53.154;18.136;2023-08-24T19:05:34;100859.78;;;19.92;100.00
25869;BME280;13688;53.154;18.136;2023-08-24T19:10:58;100843.45;;;19.76;100.00
25869;BME280;13688;53.154;18.136;2023-08-24T19:16:21;100848.89;;;19.84;100.00
25869;BME280;13688;53.154;18.136;2023-08-24T19:21:43;100846.41;;;19.58;100.00
25869;BME280;13688;53.154;18.136;2023-08-24T19:27:06;100843.88;;;19.40;100.00
25869;BME280;13688;53.154;18.136;2023-08-24T19:32:30;100827.31;;;19.58;100.00
25869;BME280;13688;53.154;18.136;2023-08-24T19:37:52;100817.11;;;19.43;100.00
25869;BME280;13688;53.154;18.136;2023-08-24T19:43:14;100812.66;;;19.51;100.00
25869;BME280;13688;53.154;18.136;2023-08-24T19:48:37;100799.87;;;19.51;100.00
25869;BME280;13688;53.154;18.136;2023-08-24T19:54:01;100789.88;;;19.19;100.00
25869;BME280;13688;53.154;18.136;2023-08-24T19:59:24;100785.64;;;19.16;100.00
25869;BME280;13688;53.154;18.136;2023-08-24T20:04:48;100779.63;;;19.29;100.00
25869;BME280;13688;53.154;18.136;2023-08-24T20:10:13;100772.67;;;19.19;100.00
25869;BME280;13688;53.154;18.136;2023-08-24T20:15:36;100769.12;;;19.10;100.00
25869;BME280;13688;53.154;18.136;2023-08-24T20:20:58;100766.45;;;18.85;100.00
25869;BME280;13688;53.154;18.136;2023-08-24T20:26:21;100764.25;;;18.65;100.00
25869;BME280;13688;53.154;18.136;2023-08-24T20:31:43;100749.75;;;18.56;100.00
25869;BME280;13688;53.154;18.136;2023-08-24T20:37:05;100750.63;;;18.65;100.00
25869;BME280;13688;53.154;18.136;2023-08-24T20:42:28;100755.86;;;18.58;100.00
25869;BME280;13688;53.154;18.136;2023-08-24T20:47:50;100766.09;;;18.56;100.00
25869;BME280;13688;53.154;18.136;2023-08-24T20:53:13;100762.16;;;18.58;100.00
25869;BME280;13688;53.154;18.136;2023-08-24T20:58:36;100762.66;;;18.62;100.00
25869;BME280;13688;53.154;18.136;2023-08-24T21:03:58;100770.47;;;18.33;100.00
25869;BME280;13688;53.154;18.136;2023-08-24T21:09:20;100751.77;;;18.29;100.00
25869;BME280;13688;53.154;18.136;2023-08-24T21:14:43;100754.84;;;18.35;100.00
25869;BME280;13688;53.154;18.136;2023-08-24T21:20:07;100766.90;;;18.32;100.00
25869;BME280;13688;53.154;18.136;2023-08-24T21:25:31;100770.47;;;18.33;100.00
25869;BME280;13688;53.154;18.136;2023-08-24T21:30:58;100771.67;;;18.30;100.00
25869;BME280;13688;53.154;18.136;2023-08-24T21:36:19;100770.47;;;18.16;100.00
25869;BME280;13688;53.154;18.136;2023-08-24T21:41:42;100779.72;;;17.81;100.00
25869;BME280;13688;53.154;18.136;2023-08-24T21:47:06;100767.13;;;17.80;100.00
25869;BME280;13688;53.154;18.136;2023-08-24T21:52:28;100758.97;;;17.80;100.00
25869;BME280;13688;53.154;18.136;2023-08-24T21:57:50;100754.59;;;17.87;100.00
25869;BME280;13688;53.154;18.136;2023-08-24T22:03:13;100762.55;;;17.81;100.00
25869;BME280;13688;53.154;18.136;2023-08-24T22:08:36;100741.77;;;17.71;100.00
25869;BME280;13688;53.154;18.136;2023-08-24T22:13:58;100720.70;;;17.73;100.00
25869;BME280;13688;53.154;18.136;2023-08-24T22:19:21;100709.62;;;17.67;100.00
25869;BME280;13688;53.154;18.136;2023-08-24T22:24:45;100701.30;;;17.68;100.00
25869;BME280;13688;53.154;18.136;2023-08-24T22:30:08;100670.41;;;17.78;100.00
25869;BME280;13688;53.154;18.136;2023-08-24T22:35:31;100647.11;;;17.83;100.00
25869;BME280;13688;53.154;18.136;2023-08-24T22:40:54;100647.29;;;17.82;100.00
25869;BME280;13688;53.154;18.136;2023-08-24T22:46:16;100639.58;;;17.61;100.00
25869;BME280;13688;53.154;18.136;2023-08-24T22:51:39;100624.09;;;17.53;100.00
25869;BME280;13688;53.154;18.136;2023-08-24T22:57:02;100619.33;;;17.55;100.00
25869;BME280;13688;53.154;18.136;2023-08-24T23:02:26;100627.80;;;17.44;100.00
25869;BME280;13688;53.154;18.136;2023-08-24T23:07:48;100646.97;;;17.34;100.00
25869;BME280;13688;53.154;18.136;2023-08-24T23:13:11;100650.50;;;17.19;100.00
25869;BME280;13688;53.154;18.136;2023-08-24T23:18:34;100646.22;;;17.16;100.00
25869;BME280;13688;53.154;18.136;2023-08-24T23:23:56;100651.66;;;17.16;100.00
25869;BME280;13688;53.154;18.136;2023-08-24T23:29:20;100657.63;;;17.20;100.00
25869;BME280;13688;53.154;18.136;2023-08-24T23:34:43;100655.52;;;17.05;100.00
25869;BME280;13688;53.154;18.136;2023-08-24T23:40:07;100662.04;;;16.86;100.00
25869;BME280;13688;53.154;18.136;2023-08-24T23:45:30;100682.86;;;16.78;100.00
25869;BME280;13688;53.154;18.136;2023-08-24T23:50:53;100677.59;;;16.76;100.00
25869;BME280;13688;53.154;18.136;2023-08-24T23:56:15;100678.94;;;16.72;100.00
